sensor_id;sensor_type;location;lat;lon;timestamp;P1;durP1;ratioP1;P2;durP2;ratioP2
31284;SDS011;56605;51.516;6.742;2023-04-24T00:01:27;3.55;;;1.50;;
31284;SDS011;56605;51.516;6.742;2023-04-24T00:03:54;1.00;;;0.63;;
31284;SDS011;56605;51.516;6.742;2023-04-24T00:06:20;2.00;;;0.85;;
31284;SDS011;56605;51.516;6.742;2023-04-24T00:08:48;2.08;;;1.25;;
31284;SDS011;56605;51.516;6.742;2023-04-24T00:11:13;7.47;;;1.63;;
31284;SDS011;56605;51.516;6.742;2023-04-24T00:13:39;1.65;;;0.60;;
31284;SDS011;56605;51.516;6.742;2023-04-24T00:16:04;1.25;;;0.57;;
31284;SDS011;56605;51.516;6.742;2023-04-24T00:18:30;3.63;;;0.57;;
31284;SDS011;56605;51.516;6.742;2023-04-24T00:20:55;1.40;;;0.90;;
31284;SDS011;56605;51.516;6.742;2023-04-24T00:23:21;0.85;;;0.85;;
31284;SDS011;56605;51.516;6.742;2023-04-24T00:25:46;0.95;;;0.60;;
31284;SDS011;56605;51.516;6.742;2023-04-24T00:28:11;2.83;;;1.23;;
31284;SDS011;56605;51.516;6.742;2023-04-24T00:30:37;1.45;;;0.90;;
31284;SDS011;56605;51.516;6.742;2023-04-24T00:33:02;3.67;;;1.33;;
31284;SDS011;56605;51.516;6.742;2023-04-24T00:35:28;1.00;;;0.50;;
31284;SDS011;56605;51.516;6.742;2023-04-24T00:37:53;0.40;;;0.30;;
31284;SDS011;56605;51.516;6.742;2023-04-24T00:40:18;1.20;;;0.90;;
31284;SDS011;56605;51.516;6.742;2023-04-24T00:42:44;2.35;;;1.63;;
31284;SDS011;56605;51.516;6.742;2023-04-24T00:45:10;2.03;;;1.38;;
31284;SDS011;56605;51.516;6.742;2023-04-24T00:47:35;4.90;;;0.80;;
31284;SDS011;56605;51.516;6.742;2023-04-24T00:50:04;0.63;;;0.47;;
31284;SDS011;56605;51.516;6.742;2023-04-24T00:52:31;0.60;;;0.60;;
31284;SDS011;56605;51.516;6.742;2023-04-24T00:54:57;1.02;;;0.75;;
31284;SDS011;56605;51.516;6.742;2023-04-24T00:57:23;1.35;;;1.00;;
31284;SDS011;56605;51.516;6.742;2023-04-24T00:59:49;0.63;;;0.50;;
31284;SDS011;56605;51.516;6.742;2023-04-24T01:02:15;3.88;;;1.63;;
31284;SDS011;56605;51.516;6.742;2023-04-24T01:04:41;0.95;;;0.40;;
31284;SDS011;56605;51.516;6.742;2023-04-24T01:07:07;1.88;;;0.63;;
31284;SDS011;56605;51.516;6.742;2023-04-24T01:09:36;6.80;;;1.38;;
31284;SDS011;56605;51.516;6.742;2023-04-24T01:12:06;3.58;;;1.52;;
31284;SDS011;56605;51.516;6.742;2023-04-24T01:14:31;0.38;;;0.30;;
31284;SDS011;56605;51.516;6.742;2023-04-24T01:16:57;2.08;;;1.77;;
31284;SDS011;56605;51.516;6.742;2023-04-24T01:19:23;4.07;;;1.83;;
31284;SDS011;56605;51.516;6.742;2023-04-24T01:21:48;1.35;;;1.05;;
31284;SDS011;56605;51.516;6.742;2023-04-24T01:24:18;2.97;;;2.10;;
31284;SDS011;56605;51.516;6.742;2023-04-24T01:26:44;1.55;;;1.25;;
31284;SDS011;56605;51.516;6.742;2023-04-24T01:29:10;4.55;;;2.50;;
31284;SDS011;56605;51.516;6.742;2023-04-24T01:31:35;6.10;;;1.92;;
31284;SDS011;56605;51.516;6.742;2023-04-24T01:34:01;4.10;;;1.90;;
31284;SDS011;56605;51.516;6.742;2023-04-24T01:36:27;2.85;;;1.45;;
31284;SDS011;56605;51.516;6.742;2023-04-24T01:38:56;5.35;;;2.92;;
31284;SDS011;56605;51.516;6.742;2023-04-24T01:41:21;5.45;;;3.13;;
31284;SDS011;56605;51.516;6.742;2023-04-24T01:43:47;0.77;;;0.73;;
31284;SDS011;56605;51.516;6.742;2023-04-24T01:46:13;3.60;;;1.35;;
31284;SDS011;56605;51.516;6.742;2023-04-24T01:48:39;1.08;;;1.00;;
31284;SDS011;56605;51.516;6.742;2023-04-24T01:51:05;4.15;;;2.20;;
31284;SDS011;56605;51.516;6.742;2023-04-24T01:53:30;3.33;;;2.42;;
31284;SDS011;56605;51.516;6.742;2023-04-24T01:55:55;1.90;;;1.08;;
31284;SDS011;56605;51.516;6.742;2023-04-24T01:58:21;6.18;;;3.33;;
31284;SDS011;56605;51.516;6.742;2023-04-24T02:00:47;5.32;;;2.67;;
31284;SDS011;56605;51.516;6.742;2023-04-24T02:03:12;2.70;;;1.42;;
31284;SDS011;56605;51.516;6.742;2023-04-24T02:05:38;5.45;;;1.65;;
31284;SDS011;56605;51.516;6.742;2023-04-24T02:08:03;3.38;;;2.25;;
31284;SDS011;56605;51.516;6.742;2023-04-24T02:10:28;4.97;;;3.03;;
31284;SDS011;56605;51.516;6.742;2023-04-24T02:12:53;3.95;;;1.23;;
31284;SDS011;56605;51.516;6.742;2023-04-24T02:15:19;3.50;;;2.28;;
31284;SDS011;56605;51.516;6.742;2023-04-24T02:17:44;4.88;;;1.80;;
31284;SDS011;56605;51.516;6.742;2023-04-24T02:20:10;2.17;;;1.63;;
31284;SDS011;56605;51.516;6.742;2023-04-24T02:22:36;7.40;;;4.10;;
31284;SDS011;56605;51.516;6.742;2023-04-24T02:25:01;10.95;;;3.65;;
31284;SDS011;56605;51.516;6.742;2023-04-24T02:27:27;3.25;;;2.35;;
31284;SDS011;56605;51.516;6.742;2023-04-24T02:29:52;2.58;;;1.98;;
31284;SDS011;56605;51.516;6.742;2023-04-24T02:32:17;14.65;;;2.55;;
31284;SDS011;56605;51.516;6.742;2023-04-24T02:34:43;12.57;;;3.78;;
31284;SDS011;56605;51.516;6.742;2023-04-24T02:37:08;11.80;;;3.90;;
31284;SDS011;56605;51.516;6.742;2023-04-24T02:39:33;6.15;;;4.35;;
31284;SDS011;56605;51.516;6.742;2023-04-24T02:41:58;5.10;;;3.15;;
31284;SDS011;56605;51.516;6.742;2023-04-24T02:44:24;7.97;;;3.05;;
31284;SDS011;56605;51.516;6.742;2023-04-24T02:46:50;2.95;;;2.47;;
31284;SDS011;56605;51.516;6.742;2023-04-24T02:49:15;6.93;;;3.50;;
31284;SDS011;56605;51.516;6.742;2023-04-24T02:51:40;5.47;;;2.17;;
31284;SDS011;56605;51.516;6.742;2023-04-24T02:54:06;10.15;;;3.05;;
31284;SDS011;56605;51.516;6.742;2023-04-24T02:56:33;6.05;;;3.05;;
31284;SDS011;56605;51.516;6.742;2023-04-24T02:58:58;7.00;;;3.33;;
31284;SDS011;56605;51.516;6.742;2023-04-24T03:01:23;6.65;;;3.72;;
31284;SDS011;56605;51.516;6.742;2023-04-24T03:03:48;7.18;;;4.03;;
31284;SDS011;56605;51.516;6.742;2023-04-24T03:06:14;5.63;;;3.15;;
31284;SDS011;56605;51.516;6.742;2023-04-24T03:08:40;4.20;;;1.30;;
31284;SDS011;56605;51.516;6.742;2023-04-24T03:11:05;7.07;;;3.72;;
31284;SDS011;56605;51.516;6.742;2023-04-24T03:13:31;5.75;;;2.78;;
31284;SDS011;56605;51.516;6.742;2023-04-24T03:15:56;5.18;;;1.45;;
31284;SDS011;56605;51.516;6.742;2023-04-24T03:18:21;5.72;;;3.45;;
31284;SDS011;56605;51.516;6.742;2023-04-24T03:20:46;11.60;;;4.43;;
31284;SDS011;56605;51.516;6.742;2023-04-24T03:23:12;10.50;;;4.53;;
31284;SDS011;56605;51.516;6.742;2023-04-24T03:25:37;9.45;;;4.30;;
31284;SDS011;56605;51.516;6.742;2023-04-24T03:28:03;10.90;;;3.28;;
31284;SDS011;56605;51.516;6.742;2023-04-24T03:30:28;4.50;;;2.08;;
31284;SDS011;56605;51.516;6.742;2023-04-24T03:32:53;3.88;;;2.78;;
31284;SDS011;56605;51.516;6.742;2023-04-24T03:35:18;22.35;;;7.72;;
31284;SDS011;56605;51.516;6.742;2023-04-24T03:37:44;9.35;;;3.88;;
31284;SDS011;56605;51.516;6.742;2023-04-24T03:40:09;30.30;;;7.25;;
31284;SDS011;56605;51.516;6.742;2023-04-24T03:42:35;8.70;;;3.90;;
31284;SDS011;56605;51.516;6.742;2023-04-24T03:45:00;6.00;;;4.20;;
31284;SDS011;56605;51.516;6.742;2023-04-24T03:47:25;7.45;;;4.40;;
31284;SDS011;56605;51.516;6.742;2023-04-24T03:49:50;8.85;;;4.20;;
31284;SDS011;56605;51.516;6.742;2023-04-24T03:52:16;5.50;;;2.72;;
31284;SDS011;56605;51.516;6.742;2023-04-24T03:54:41;22.48;;;5.32;;
31284;SDS011;56605;51.516;6.742;2023-04-24T03:57:07;11.10;;;4.82;;
31284;SDS011;56605;51.516;6.742;2023-04-24T03:59:32;8.43;;;4.35;;
31284;SDS011;56605;51.516;6.742;2023-04-24T04:01:57;4.93;;;2.85;;
31284;SDS011;56605;51.516;6.742;2023-04-24T04:04:23;14.95;;;5.85;;
31284;SDS011;56605;51.516;6.742;2023-04-24T04:06:48;3.15;;;2.13;;
31284;SDS011;56605;51.516;6.742;2023-04-24T04:09:13;5.25;;;3.47;;
31284;SDS011;56605;51.516;6.742;2023-04-24T04:11:39;1.80;;;1.67;;
31284;SDS011;56605;51.516;6.742;2023-04-24T04:14:04;5.22;;;4.63;;
31284;SDS011;56605;51.516;6.742;2023-04-24T04:16:30;9.05;;;4.22;;
31284;SDS011;56605;51.516;6.742;2023-04-24T04:18:55;6.57;;;3.78;;
31284;SDS011;56605;51.516;6.742;2023-04-24T04:21:21;5.35;;;2.97;;
31284;SDS011;56605;51.516;6.742;2023-04-24T04:23:46;6.85;;;3.92;;
31284;SDS011;56605;51.516;6.742;2023-04-24T04:26:11;2.45;;;1.27;;
31284;SDS011;56605;51.516;6.742;2023-04-24T04:28:37;3.20;;;2.00;;
31284;SDS011;56605;51.516;6.742;2023-04-24T04:31:04;3.83;;;1.85;;
31284;SDS011;56605;51.516;6.742;2023-04-24T04:33:29;3.20;;;1.35;;
31284;SDS011;56605;51.516;6.742;2023-04-24T04:35:54;3.83;;;3.00;;
31284;SDS011;56605;51.516;6.742;2023-04-24T04:38:23;8.48;;;4.25;;
31284;SDS011;56605;51.516;6.742;2023-04-24T04:40:49;7.88;;;3.85;;
31284;SDS011;56605;51.516;6.742;2023-04-24T04:43:14;7.47;;;3.75;;
31284;SDS011;56605;51.516;6.742;2023-04-24T04:45:40;3.65;;;3.25;;
31284;SDS011;56605;51.516;6.742;2023-04-24T04:48:07;5.25;;;2.50;;
31284;SDS011;56605;51.516;6.742;2023-04-24T04:50:34;5.72;;;3.00;;
31284;SDS011;56605;51.516;6.742;2023-04-24T04:52:59;10.85;;;3.03;;
31284;SDS011;56605;51.516;6.742;2023-04-24T04:55:25;4.57;;;2.97;;
31284;SDS011;56605;51.516;6.742;2023-04-24T04:57:50;1.75;;;1.00;;
31284;SDS011;56605;51.516;6.742;2023-04-24T05:00:16;7.72;;;3.60;;
31284;SDS011;56605;51.516;6.742;2023-04-24T05:02:42;3.20;;;1.90;;
31284;SDS011;56605;51.516;6.742;2023-04-24T05:05:07;7.53;;;4.72;;
31284;SDS011;56605;51.516;6.742;2023-04-24T05:07:33;9.50;;;4.50;;
31284;SDS011;56605;51.516;6.742;2023-04-24T05:09:58;9.52;;;6.00;;
31284;SDS011;56605;51.516;6.742;2023-04-24T05:12:24;6.05;;;3.70;;
31284;SDS011;56605;51.516;6.742;2023-04-24T05:14:49;3.67;;;1.67;;
31284;SDS011;56605;51.516;6.742;2023-04-24T05:17:15;9.13;;;3.90;;
31284;SDS011;56605;51.516;6.742;2023-04-24T05:19:41;4.95;;;3.20;;
31284;SDS011;56605;51.516;6.742;2023-04-24T05:22:06;1.50;;;1.27;;
31284;SDS011;56605;51.516;6.742;2023-04-24T05:24:35;3.97;;;2.65;;
31284;SDS011;56605;51.516;6.742;2023-04-24T05:27:04;1.80;;;1.05;;
31284;SDS011;56605;51.516;6.742;2023-04-24T05:29:29;3.70;;;2.85;;
31284;SDS011;56605;51.516;6.742;2023-04-24T05:31:56;6.10;;;2.30;;
31284;SDS011;56605;51.516;6.742;2023-04-24T05:34:22;4.88;;;3.92;;
31284;SDS011;56605;51.516;6.742;2023-04-24T05:36:47;6.40;;;2.65;;
31284;SDS011;56605;51.516;6.742;2023-04-24T05:39:13;5.10;;;2.58;;
31284;SDS011;56605;51.516;6.742;2023-04-24T05:41:38;4.38;;;0.95;;
31284;SDS011;56605;51.516;6.742;2023-04-24T05:44:04;3.55;;;2.35;;
31284;SDS011;56605;51.516;6.742;2023-04-24T05:46:29;2.85;;;1.23;;
31284;SDS011;56605;51.516;6.742;2023-04-24T05:48:54;8.88;;;3.67;;
31284;SDS011;56605;51.516;6.742;2023-04-24T05:51:20;3.78;;;2.13;;
31284;SDS011;56605;51.516;6.742;2023-04-24T05:53:45;5.75;;;3.75;;
31284;SDS011;56605;51.516;6.742;2023-04-24T05:56:10;19.27;;;4.75;;
31284;SDS011;56605;51.516;6.742;2023-04-24T05:58:36;8.88;;;3.85;;
31284;SDS011;56605;51.516;6.742;2023-04-24T06:01:02;5.10;;;3.55;;
31284;SDS011;56605;51.516;6.742;2023-04-24T06:03:28;1.30;;;1.00;;
31284;SDS011;56605;51.516;6.742;2023-04-24T06:05:53;2.00;;;1.85;;
31284;SDS011;56605;51.516;6.742;2023-04-24T06:08:19;3.97;;;1.95;;
31284;SDS011;56605;51.516;6.742;2023-04-24T06:10:44;3.50;;;2.03;;
31284;SDS011;56605;51.516;6.742;2023-04-24T06:13:10;5.90;;;3.15;;
31284;SDS011;56605;51.516;6.742;2023-04-24T06:15:36;4.57;;;1.88;;
31284;SDS011;56605;51.516;6.742;2023-04-24T06:18:01;10.10;;;4.70;;
31284;SDS011;56605;51.516;6.742;2023-04-24T06:20:27;10.18;;;3.28;;
31284;SDS011;56605;51.516;6.742;2023-04-24T06:22:52;8.70;;;4.30;;
31284;SDS011;56605;51.516;6.742;2023-04-24T06:25:17;7.15;;;3.47;;
31284;SDS011;56605;51.516;6.742;2023-04-24T06:27:43;7.78;;;4.38;;
31284;SDS011;56605;51.516;6.742;2023-04-24T06:30:09;7.85;;;4.70;;
31284;SDS011;56605;51.516;6.742;2023-04-24T06:32:34;5.72;;;3.35;;
31284;SDS011;56605;51.516;6.742;2023-04-24T06:35:00;6.93;;;4.15;;
31284;SDS011;56605;51.516;6.742;2023-04-24T06:37:25;8.30;;;3.42;;
31284;SDS011;56605;51.516;6.742;2023-04-24T06:39:50;4.72;;;3.40;;
31284;SDS011;56605;51.516;6.742;2023-04-24T06:42:16;4.32;;;2.65;;
31284;SDS011;56605;51.516;6.742;2023-04-24T06:44:41;2.08;;;1.55;;
31284;SDS011;56605;51.516;6.742;2023-04-24T06:47:07;4.40;;;3.30;;
31284;SDS011;56605;51.516;6.742;2023-04-24T06:49:37;1.98;;;1.25;;
31284;SDS011;56605;51.516;6.742;2023-04-24T06:52:03;7.18;;;2.80;;
31284;SDS011;56605;51.516;6.742;2023-04-24T06:54:28;5.07;;;2.17;;
31284;SDS011;56605;51.516;6.742;2023-04-24T06:56:54;14.23;;;3.58;;
31284;SDS011;56605;51.516;6.742;2023-04-24T06:59:20;4.00;;;2.72;;
31284;SDS011;56605;51.516;6.742;2023-04-24T07:01:45;2.60;;;2.22;;
31284;SDS011;56605;51.516;6.742;2023-04-24T07:04:10;5.18;;;2.17;;
31284;SDS011;56605;51.516;6.742;2023-04-24T07:06:37;1.35;;;0.88;;
31284;SDS011;56605;51.516;6.742;2023-04-24T07:09:04;3.58;;;1.33;;
31284;SDS011;56605;51.516;6.742;2023-04-24T07:11:29;1.67;;;0.90;;
31284;SDS011;56605;51.516;6.742;2023-04-24T07:13:55;3.50;;;1.83;;
31284;SDS011;56605;51.516;6.742;2023-04-24T07:16:20;3.08;;;1.50;;
31284;SDS011;56605;51.516;6.742;2023-04-24T07:18:46;3.83;;;1.92;;
31284;SDS011;56605;51.516;6.742;2023-04-24T07:21:11;2.65;;;0.93;;
31284;SDS011;56605;51.516;6.742;2023-04-24T07:23:36;3.22;;;1.33;;
31284;SDS011;56605;51.516;6.742;2023-04-24T07:26:02;0.88;;;0.52;;
31284;SDS011;56605;51.516;6.742;2023-04-24T07:28:27;0.85;;;0.52;;
31284;SDS011;56605;51.516;6.742;2023-04-24T07:30:56;0.43;;;0.30;;
31284;SDS011;56605;51.516;6.742;2023-04-24T07:33:21;0.38;;;0.38;;
31284;SDS011;56605;51.516;6.742;2023-04-24T07:35:47;0.60;;;0.22;;
31284;SDS011;56605;51.516;6.742;2023-04-24T07:38:12;0.55;;;0.50;;
31284;SDS011;56605;51.516;6.742;2023-04-24T07:40:38;0.10;;;0.10;;
31284;SDS011;56605;51.516;6.742;2023-04-24T07:43:03;1.17;;;0.75;;
31284;SDS011;56605;51.516;6.742;2023-04-24T07:45:28;1.10;;;0.85;;
31284;SDS011;56605;51.516;6.742;2023-04-24T07:47:54;0.25;;;0.20;;
31284;SDS011;56605;51.516;6.742;2023-04-24T07:50:19;1.77;;;0.43;;
31284;SDS011;56605;51.516;6.742;2023-04-24T07:52:45;1.25;;;0.68;;
31284;SDS011;56605;51.516;6.742;2023-04-24T07:55:10;0.40;;;0.40;;
31284;SDS011;56605;51.516;6.742;2023-04-24T07:57:35;1.52;;;0.47;;
31284;SDS011;56605;51.516;6.742;2023-04-24T08:00:02;0.20;;;0.17;;
31284;SDS011;56605;51.516;6.742;2023-04-24T08:02:28;1.17;;;0.35;;
31284;SDS011;56605;51.516;6.742;2023-04-24T08:04:54;1.60;;;0.43;;
31284;SDS011;56605;51.516;6.742;2023-04-24T08:07:19;0.57;;;0.57;;
31284;SDS011;56605;51.516;6.742;2023-04-24T08:09:45;0.63;;;0.40;;
31284;SDS011;56605;51.516;6.742;2023-04-24T08:12:10;0.10;;;0.10;;
31284;SDS011;56605;51.516;6.742;2023-04-24T08:14:36;0.73;;;0.30;;
31284;SDS011;56605;51.516;6.742;2023-04-24T08:17:01;0.85;;;0.32;;
31284;SDS011;56605;51.516;6.742;2023-04-24T08:19:27;0.93;;;0.20;;
31284;SDS011;56605;51.516;6.742;2023-04-24T08:21:52;0.65;;;0.35;;
31284;SDS011;56605;51.516;6.742;2023-04-24T08:24:18;0.95;;;0.85;;
31284;SDS011;56605;51.516;6.742;2023-04-24T08:26:43;3.85;;;0.70;;
31284;SDS011;56605;51.516;6.742;2023-04-24T08:29:09;1.08;;;0.60;;
31284;SDS011;56605;51.516;6.742;2023-04-24T08:31:34;0.43;;;0.25;;
31284;SDS011;56605;51.516;6.742;2023-04-24T08:34:00;0.20;;;0.20;;
31284;SDS011;56605;51.516;6.742;2023-04-24T08:36:25;0.10;;;0.10;;
31284;SDS011;56605;51.516;6.742;2023-04-24T08:38:51;0.20;;;0.17;;
31284;SDS011;56605;51.516;6.742;2023-04-24T08:41:17;0.60;;;0.08;;
31284;SDS011;56605;51.516;6.742;2023-04-24T08:43:43;0.00;;;0.00;;
31284;SDS011;56605;51.516;6.742;2023-04-24T08:46:11;0.20;;;0.20;;
31284;SDS011;56605;51.516;6.742;2023-04-24T08:48:38;0.40;;;0.28;;
31284;SDS011;56605;51.516;6.742;2023-04-24T08:51:04;0.22;;;0.22;;
31284;SDS011;56605;51.516;6.742;2023-04-24T08:53:32;0.00;;;0.00;;
31284;SDS011;56605;51.516;6.742;2023-04-24T08:55:59;0.10;;;0.10;;
31284;SDS011;56605;51.516;6.742;2023-04-24T08:58:26;0.00;;;0.00;;
31284;SDS011;56605;51.516;6.742;2023-04-24T09:00:53;1.00;;;0.65;;
31284;SDS011;56605;51.516;6.742;2023-04-24T09:03:19;1.35;;;0.77;;
31284;SDS011;56605;51.516;6.742;2023-04-24T09:05:46;0.00;;;0.00;;
31284;SDS011;56605;51.516;6.742;2023-04-24T09:08:14;0.80;;;0.30;;
31284;SDS011;56605;51.516;6.742;2023-04-24T09:10:42;2.80;;;1.40;;
31284;SDS011;56605;51.516;6.742;2023-04-24T09:13:07;1.58;;;1.27;;
31284;SDS011;56605;51.516;6.742;2023-04-24T09:15:36;2.75;;;2.10;;
31284;SDS011;56605;51.516;6.742;2023-04-24T09:18:02;1.80;;;1.55;;
31284;SDS011;56605;51.516;6.742;2023-04-24T09:20:29;3.40;;;2.70;;
31284;SDS011;56605;51.516;6.742;2023-04-24T09:22:54;2.03;;;1.55;;
31284;SDS011;56605;51.516;6.742;2023-04-24T09:25:21;2.97;;;2.08;;
31284;SDS011;56605;51.516;6.742;2023-04-24T09:27:46;2.85;;;1.30;;
31284;SDS011;56605;51.516;6.742;2023-04-24T09:30:12;3.08;;;2.10;;
31284;SDS011;56605;51.516;6.742;2023-04-24T09:32:39;2.28;;;1.17;;
31284;SDS011;56605;51.516;6.742;2023-04-24T09:35:05;2.63;;;1.42;;
31284;SDS011;56605;51.516;6.742;2023-04-24T09:37:39;1.98;;;1.13;;
31284;SDS011;56605;51.516;6.742;2023-04-24T09:42:38;4.90;;;1.40;;
31284;SDS011;56605;51.516;6.742;2023-04-24T09:45:04;1.77;;;1.55;;
31284;SDS011;56605;51.516;6.742;2023-04-24T09:47:38;2.03;;;1.38;;
31284;SDS011;56605;51.516;6.742;2023-04-24T09:50:10;0.65;;;0.57;;
31284;SDS011;56605;51.516;6.742;2023-04-24T09:52:39;2.97;;;1.58;;
31284;SDS011;56605;51.516;6.742;2023-04-24T09:55:10;1.40;;;1.02;;
31284;SDS011;56605;51.516;6.742;2023-04-24T09:57:42;2.42;;;1.58;;
31284;SDS011;56605;51.516;6.742;2023-04-24T10:00:12;0.82;;;0.82;;
31284;SDS011;56605;51.516;6.742;2023-04-24T10:02:38;3.70;;;2.28;;
31284;SDS011;56605;51.516;6.742;2023-04-24T10:05:03;1.80;;;1.05;;
31284;SDS011;56605;51.516;6.742;2023-04-24T10:07:32;0.57;;;0.35;;
31284;SDS011;56605;51.516;6.742;2023-04-24T10:09:57;6.03;;;2.08;;
31284;SDS011;56605;51.516;6.742;2023-04-24T10:12:24;0.65;;;0.65;;
31284;SDS011;56605;51.516;6.742;2023-04-24T10:14:50;4.78;;;1.45;;
31284;SDS011;56605;51.516;6.742;2023-04-24T10:17:16;2.97;;;2.40;;
31284;SDS011;56605;51.516;6.742;2023-04-24T10:19:42;3.78;;;2.03;;
31284;SDS011;56605;51.516;6.742;2023-04-24T10:22:08;2.78;;;1.67;;
31284;SDS011;56605;51.516;6.742;2023-04-24T10:24:34;1.67;;;0.98;;
31284;SDS011;56605;51.516;6.742;2023-04-24T10:27:02;0.65;;;0.30;;
31284;SDS011;56605;51.516;6.742;2023-04-24T10:29:28;2.83;;;1.40;;
31284;SDS011;56605;51.516;6.742;2023-04-24T10:31:56;8.57;;;2.30;;
31284;SDS011;56605;51.516;6.742;2023-04-24T10:34:21;1.60;;;0.98;;
31284;SDS011;56605;51.516;6.742;2023-04-24T10:36:49;6.82;;;2.17;;
31284;SDS011;56605;51.516;6.742;2023-04-24T10:39:16;3.47;;;2.30;;
31284;SDS011;56605;51.516;6.742;2023-04-24T10:41:43;7.93;;;2.55;;
31284;SDS011;56605;51.516;6.742;2023-04-24T10:44:15;0.10;;;0.00;;
31284;SDS011;56605;51.516;6.742;2023-04-24T10:46:45;1.85;;;1.15;;
31284;SDS011;56605;51.516;6.742;2023-04-24T10:49:17;13.45;;;3.05;;
31284;SDS011;56605;51.516;6.742;2023-04-24T10:51:53;1.88;;;1.05;;
31284;SDS011;56605;51.516;6.742;2023-04-24T10:54:25;0.73;;;0.73;;
31284;SDS011;56605;51.516;6.742;2023-04-24T10:56:53;1.85;;;1.08;;
31284;SDS011;56605;51.516;6.742;2023-04-24T10:59:38;2.72;;;0.52;;
31284;SDS011;56605;51.516;6.742;2023-04-24T11:02:03;6.43;;;1.60;;
31284;SDS011;56605;51.516;6.742;2023-04-24T11:04:32;5.63;;;1.65;;
31284;SDS011;56605;51.516;6.742;2023-04-24T11:06:58;2.00;;;1.05;;
31284;SDS011;56605;51.516;6.742;2023-04-24T11:09:26;2.45;;;1.15;;
31284;SDS011;56605;51.516;6.742;2023-04-24T11:12:02;1.08;;;0.65;;
31284;SDS011;56605;51.516;6.742;2023-04-24T11:17:30;2.20;;;1.27;;
31284;SDS011;56605;51.516;6.742;2023-04-24T11:20:05;0.75;;;0.57;;
31284;SDS011;56605;51.516;6.742;2023-04-24T11:22:33;2.15;;;0.70;;
31284;SDS011;56605;51.516;6.742;2023-04-24T11:25:00;2.63;;;0.95;;
31284;SDS011;56605;51.516;6.742;2023-04-24T11:27:28;0.00;;;0.00;;
31284;SDS011;56605;51.516;6.742;2023-04-24T11:30:16;2.85;;;1.15;;
31284;SDS011;56605;51.516;6.742;2023-04-24T11:32:48;1.40;;;1.30;;
31284;SDS011;56605;51.516;6.742;2023-04-24T11:35:20;9.80;;;2.00;;
31284;SDS011;56605;51.516;6.742;2023-04-24T11:37:50;2.45;;;0.95;;
31284;SDS011;56605;51.516;6.742;2023-04-24T11:40:17;1.85;;;0.93;;
31284;SDS011;56605;51.516;6.742;2023-04-24T11:42:49;0.88;;;0.70;;
31284;SDS011;56605;51.516;6.742;2023-04-24T11:45:16;6.35;;;1.27;;
31284;SDS011;56605;51.516;6.742;2023-04-24T11:47:44;1.45;;;0.80;;
31284;SDS011;56605;51.516;6.742;2023-04-24T11:50:11;1.02;;;0.57;;
31284;SDS011;56605;51.516;6.742;2023-04-24T11:52:42;0.45;;;0.32;;
31284;SDS011;56605;51.516;6.742;2023-04-24T11:57:42;0.43;;;0.43;;
31284;SDS011;56605;51.516;6.742;2023-04-24T12:00:14;2.58;;;0.73;;
31284;SDS011;56605;51.516;6.742;2023-04-24T12:02:50;1.23;;;1.13;;
31284;SDS011;56605;51.516;6.742;2023-04-24T12:05:20;2.28;;;0.40;;
31284;SDS011;56605;51.516;6.742;2023-04-24T12:07:46;2.78;;;1.92;;
31284;SDS011;56605;51.516;6.742;2023-04-24T12:10:12;2.28;;;0.70;;
31284;SDS011;56605;51.516;6.742;2023-04-24T12:12:37;3.42;;;1.40;;
31284;SDS011;56605;51.516;6.742;2023-04-24T12:15:06;0.68;;;0.45;;
31284;SDS011;56605;51.516;6.742;2023-04-24T12:17:33;3.83;;;1.17;;
31284;SDS011;56605;51.516;6.742;2023-04-24T12:22:26;2.08;;;1.00;;
31284;SDS011;56605;51.516;6.742;2023-04-24T12:25:03;0.60;;;0.60;;
31284;SDS011;56605;51.516;6.742;2023-04-24T12:27:33;2.63;;;0.85;;
31284;SDS011;56605;51.516;6.742;2023-04-24T12:29:59;0.40;;;0.20;;
31284;SDS011;56605;51.516;6.742;2023-04-24T12:32:26;1.35;;;0.80;;
31284;SDS011;56605;51.516;6.742;2023-04-24T12:34:55;1.42;;;0.30;;
31284;SDS011;56605;51.516;6.742;2023-04-24T12:37:23;3.70;;;0.60;;
31284;SDS011;56605;51.516;6.742;2023-04-24T12:40:09;0.55;;;0.30;;
31284;SDS011;56605;51.516;6.742;2023-04-24T12:42:41;4.57;;;0.35;;
31284;SDS011;56605;51.516;6.742;2023-04-24T12:45:08;0.30;;;0.20;;
31284;SDS011;56605;51.516;6.742;2023-04-24T12:47:34;0.85;;;0.40;;
31284;SDS011;56605;51.516;6.742;2023-04-24T12:50:00;7.32;;;0.52;;
31284;SDS011;56605;51.516;6.742;2023-04-24T12:52:26;3.25;;;0.65;;
31284;SDS011;56605;51.516;6.742;2023-04-24T12:54:54;2.10;;;0.32;;
31284;SDS011;56605;51.516;6.742;2023-04-24T12:57:22;4.45;;;1.02;;
31284;SDS011;56605;51.516;6.742;2023-04-24T12:59:49;3.13;;;0.80;;
31284;SDS011;56605;51.516;6.742;2023-04-24T13:02:15;0.40;;;0.20;;
31284;SDS011;56605;51.516;6.742;2023-04-24T13:04:43;1.27;;;0.60;;
31284;SDS011;56605;51.516;6.742;2023-04-24T13:07:09;0.40;;;0.30;;
31284;SDS011;56605;51.516;6.742;2023-04-24T13:09:35;3.30;;;0.95;;
31284;SDS011;56605;51.516;6.742;2023-04-24T13:12:00;0.50;;;0.40;;
31284;SDS011;56605;51.516;6.742;2023-04-24T13:14:26;1.75;;;0.52;;
31284;SDS011;56605;51.516;6.742;2023-04-24T13:16:51;1.77;;;0.65;;
31284;SDS011;56605;51.516;6.742;2023-04-24T13:19:17;0.10;;;0.03;;
31284;SDS011;56605;51.516;6.742;2023-04-24T13:21:43;0.65;;;0.63;;
31284;SDS011;56605;51.516;6.742;2023-04-24T13:24:08;0.52;;;0.40;;
31284;SDS011;56605;51.516;6.742;2023-04-24T13:26:35;0.40;;;0.38;;
31284;SDS011;56605;51.516;6.742;2023-04-24T13:29:00;0.90;;;0.70;;
31284;SDS011;56605;51.516;6.742;2023-04-24T13:31:25;3.10;;;0.38;;
31284;SDS011;56605;51.516;6.742;2023-04-24T13:33:50;2.08;;;0.73;;
31284;SDS011;56605;51.516;6.742;2023-04-24T13:36:16;3.40;;;0.68;;
31284;SDS011;56605;51.516;6.742;2023-04-24T13:38:42;1.10;;;0.03;;
31284;SDS011;56605;51.516;6.742;2023-04-24T13:41:08;0.00;;;0.00;;
31284;SDS011;56605;51.516;6.742;2023-04-24T13:43:33;0.00;;;0.00;;
31284;SDS011;56605;51.516;6.742;2023-04-24T13:45:59;1.10;;;0.65;;
31284;SDS011;56605;51.516;6.742;2023-04-24T13:48:26;1.60;;;0.32;;
31284;SDS011;56605;51.516;6.742;2023-04-24T13:50:52;3.03;;;0.70;;
31284;SDS011;56605;51.516;6.742;2023-04-24T13:53:17;0.10;;;0.10;;
31284;SDS011;56605;51.516;6.742;2023-04-24T13:55:42;0.25;;;0.25;;
31284;SDS011;56605;51.516;6.742;2023-04-24T13:58:07;1.52;;;0.65;;
31284;SDS011;56605;51.516;6.742;2023-04-24T14:00:33;2.92;;;1.00;;
31284;SDS011;56605;51.516;6.742;2023-04-24T14:02:58;1.10;;;0.30;;
31284;SDS011;56605;51.516;6.742;2023-04-24T14:05:23;0.68;;;0.52;;
31284;SDS011;56605;51.516;6.742;2023-04-24T14:07:50;0.32;;;0.32;;
31284;SDS011;56605;51.516;6.742;2023-04-24T14:10:15;0.50;;;0.47;;
31284;SDS011;56605;51.516;6.742;2023-04-24T14:12:41;0.47;;;0.47;;
31284;SDS011;56605;51.516;6.742;2023-04-24T14:15:06;0.00;;;0.00;;
31284;SDS011;56605;51.516;6.742;2023-04-24T14:17:33;0.00;;;0.00;;
31284;SDS011;56605;51.516;6.742;2023-04-24T14:19:58;1.23;;;0.68;;
31284;SDS011;56605;51.516;6.742;2023-04-24T14:22:25;0.70;;;0.43;;
31284;SDS011;56605;51.516;6.742;2023-04-24T14:24:50;0.43;;;0.38;;
31284;SDS011;56605;51.516;6.742;2023-04-24T14:27:16;0.77;;;0.47;;
31284;SDS011;56605;51.516;6.742;2023-04-24T14:29:41;0.98;;;0.88;;
31284;SDS011;56605;51.516;6.742;2023-04-24T14:32:07;0.65;;;0.65;;
31284;SDS011;56605;51.516;6.742;2023-04-24T14:34:33;0.95;;;0.60;;
31284;SDS011;56605;51.516;6.742;2023-04-24T14:36:59;0.00;;;0.00;;
31284;SDS011;56605;51.516;6.742;2023-04-24T14:39:25;1.02;;;0.90;;
31284;SDS011;56605;51.516;6.742;2023-04-24T14:41:50;0.90;;;0.75;;
31284;SDS011;56605;51.516;6.742;2023-04-24T14:44:15;0.65;;;0.52;;
31284;SDS011;56605;51.516;6.742;2023-04-24T14:46:41;0.52;;;0.25;;
31284;SDS011;56605;51.516;6.742;2023-04-24T14:49:08;0.85;;;0.52;;
31284;SDS011;56605;51.516;6.742;2023-04-24T14:51:35;0.98;;;0.57;;
31284;SDS011;56605;51.516;6.742;2023-04-24T14:54:01;0.35;;;0.28;;